sensor_id;sensor_type;location;lat;lon;timestamp;P1;durP1;ratioP1;P2;durP2;ratioP2
11960;SDS011;6040;49.358;11.140;2023-07-30T00:00:42;2.60;;;1.60;;
11960;SDS011;6040;49.358;11.140;2023-07-30T00:03:09;3.17;;;2.00;;
11960;SDS011;6040;49.358;11.140;2023-07-30T00:05:35;2.03;;;1.73;;
11960;SDS011;6040;49.358;11.140;2023-07-30T00:08:04;2.90;;;2.20;;
11960;SDS011;6040;49.358;11.140;2023-07-30T00:10:30;1.80;;;1.70;;
11960;SDS011;6040;49.358;11.140;2023-07-30T00:12:57;4.23;;;2.00;;
11960;SDS011;6040;49.358;11.140;2023-07-30T00:15:24;2.00;;;1.70;;
11960;SDS011;6040;49.358;11.140;2023-07-30T00:17:51;2.30;;;1.97;;
11960;SDS011;6040;49.358;11.140;2023-07-30T00:20:17;1.97;;;1.67;;
11960;SDS011;6040;49.358;11.140;2023-07-30T00:22:45;4.23;;;1.70;;
11960;SDS011;6040;49.358;11.140;2023-07-30T00:25:13;2.50;;;1.87;;
11960;SDS011;6040;49.358;11.140;2023-07-30T00:27:40;3.07;;;2.10;;
11960;SDS011;6040;49.358;11.140;2023-07-30T00:30:07;1.80;;;1.70;;
11960;SDS011;6040;49.358;11.140;2023-07-30T00:32:34;1.73;;;1.63;;
11960;SDS011;6040;49.358;11.140;2023-07-30T00:35:01;4.10;;;2.30;;
11960;SDS011;6040;49.358;11.140;2023-07-30T00:37:28;3.13;;;1.90;;
11960;SDS011;6040;49.358;11.140;2023-07-30T00:39:55;2.07;;;1.80;;
11960;SDS011;6040;49.358;11.140;2023-07-30T00:42:23;3.40;;;2.03;;
11960;SDS011;6040;49.358;11.140;2023-07-30T00:44:50;2.40;;;1.80;;
11960;SDS011;6040;49.358;11.140;2023-07-30T00:47:17;2.17;;;1.90;;
11960;SDS011;6040;49.358;11.140;2023-07-30T00:49:43;2.80;;;2.10;;
11960;SDS011;6040;49.358;11.140;2023-07-30T00:52:09;2.57;;;1.97;;
11960;SDS011;6040;49.358;11.140;2023-07-30T00:54:37;2.30;;;2.10;;
11960;SDS011;6040;49.358;11.140;2023-07-30T00:57:05;2.83;;;2.00;;
11960;SDS011;6040;49.358;11.140;2023-07-30T00:59:34;2.23;;;2.03;;
11960;SDS011;6040;49.358;11.140;2023-07-30T01:02:01;4.63;;;2.13;;
11960;SDS011;6040;49.358;11.140;2023-07-30T01:04:29;2.63;;;2.13;;
11960;SDS011;6040;49.358;11.140;2023-07-30T01:06:56;2.47;;;2.10;;
11960;SDS011;6040;49.358;11.140;2023-07-30T01:09:23;4.10;;;2.07;;
11960;SDS011;6040;49.358;11.140;2023-07-30T01:11:51;2.30;;;2.10;;
11960;SDS011;6040;49.358;11.140;2023-07-30T01:14:19;4.87;;;2.10;;
11960;SDS011;6040;49.358;11.140;2023-07-30T01:16:49;4.07;;;2.23;;
11960;SDS011;6040;49.358;11.140;2023-07-30T01:19:16;3.03;;;2.33;;
11960;SDS011;6040;49.358;11.140;2023-07-30T01:21:44;5.17;;;2.30;;
11960;SDS011;6040;49.358;11.140;2023-07-30T01:24:11;3.37;;;2.47;;
11960;SDS011;6040;49.358;11.140;2023-07-30T01:26:39;3.63;;;2.90;;
11960;SDS011;6040;49.358;11.140;2023-07-30T01:29:09;3.03;;;2.40;;
11960;SDS011;6040;49.358;11.140;2023-07-30T01:31:40;3.27;;;2.77;;
11960;SDS011;6040;49.358;11.140;2023-07-30T01:34:09;5.87;;;2.40;;
11960;SDS011;6040;49.358;11.140;2023-07-30T01:36:37;3.10;;;2.63;;
11960;SDS011;6040;49.358;11.140;2023-07-30T01:39:07;2.93;;;2.67;;
11960;SDS011;6040;49.358;11.140;2023-07-30T01:41:36;2.97;;;2.53;;
11960;SDS011;6040;49.358;11.140;2023-07-30T01:44:03;4.93;;;2.30;;
11960;SDS011;6040;49.358;11.140;2023-07-30T01:46:30;6.30;;;2.73;;
11960;SDS011;6040;49.358;11.140;2023-07-30T01:48:57;3.07;;;2.77;;
11960;SDS011;6040;49.358;11.140;2023-07-30T01:51:23;3.17;;;2.60;;
11960;SDS011;6040;49.358;11.140;2023-07-30T01:53:50;5.53;;;3.10;;
11960;SDS011;6040;49.358;11.140;2023-07-30T01:56:18;4.50;;;2.70;;
11960;SDS011;6040;49.358;11.140;2023-07-30T01:58:44;8.57;;;3.17;;
11960;SDS011;6040;49.358;11.140;2023-07-30T02:01:11;4.17;;;2.80;;
11960;SDS011;6040;49.358;11.140;2023-07-30T02:03:38;4.73;;;2.77;;
11960;SDS011;6040;49.358;11.140;2023-07-30T02:06:05;8.50;;;3.30;;
11960;SDS011;6040;49.358;11.140;2023-07-30T02:08:32;3.40;;;2.77;;
11960;SDS011;6040;49.358;11.140;2023-07-30T02:10:59;4.87;;;2.90;;
11960;SDS011;6040;49.358;11.140;2023-07-30T02:13:27;4.60;;;2.93;;
11960;SDS011;6040;49.358;11.140;2023-07-30T02:15:54;5.70;;;3.10;;
11960;SDS011;6040;49.358;11.140;2023-07-30T02:18:21;3.53;;;2.93;;
11960;SDS011;6040;49.358;11.140;2023-07-30T02:20:47;3.50;;;3.20;;
11960;SDS011;6040;49.358;11.140;2023-07-30T02:23:14;5.00;;;3.10;;
11960;SDS011;6040;49.358;11.140;2023-07-30T02:25:42;7.70;;;2.97;;
11960;SDS011;6040;49.358;11.140;2023-07-30T02:28:09;5.30;;;3.10;;
11960;SDS011;6040;49.358;11.140;2023-07-30T02:30:37;5.17;;;3.20;;
11960;SDS011;6040;49.358;11.140;2023-07-30T02:33:04;5.23;;;2.93;;
11960;SDS011;6040;49.358;11.140;2023-07-30T02:35:30;5.70;;;3.47;;
11960;SDS011;6040;49.358;11.140;2023-07-30T02:37:57;4.70;;;3.10;;
11960;SDS011;6040;49.358;11.140;2023-07-30T02:40:24;3.83;;;3.40;;
11960;SDS011;6040;49.358;11.140;2023-07-30T02:42:51;5.40;;;3.43;;
11960;SDS011;6040;49.358;11.140;2023-07-30T02:45:17;6.47;;;3.67;;
11960;SDS011;6040;49.358;11.140;2023-07-30T02:47:46;5.40;;;3.60;;
11960;SDS011;6040;49.358;11.140;2023-07-30T02:50:13;6.07;;;3.60;;
11960;SDS011;6040;49.358;11.140;2023-07-30T02:52:39;6.17;;;3.63;;
11960;SDS011;6040;49.358;11.140;2023-07-30T02:55:06;4.10;;;3.20;;
11960;SDS011;6040;49.358;11.140;2023-07-30T02:57:34;4.77;;;3.20;;
11960;SDS011;6040;49.358;11.140;2023-07-30T03:00:01;5.67;;;3.33;;
11960;SDS011;6040;49.358;11.140;2023-07-30T03:02:29;3.93;;;3.33;;
11960;SDS011;6040;49.358;11.140;2023-07-30T03:04:57;4.83;;;3.40;;
11960;SDS011;6040;49.358;11.140;2023-07-30T03:07:24;4.60;;;3.37;;
11960;SDS011;6040;49.358;11.140;2023-07-30T03:09:51;5.27;;;3.60;;
11960;SDS011;6040;49.358;11.140;2023-07-30T03:12:18;4.70;;;3.40;;
11960;SDS011;6040;49.358;11.140;2023-07-30T03:14:45;5.17;;;3.70;;
11960;SDS011;6040;49.358;11.140;2023-07-30T03:17:12;4.33;;;3.40;;
11960;SDS011;6040;49.358;11.140;2023-07-30T03:19:39;5.07;;;3.40;;
11960;SDS011;6040;49.358;11.140;2023-07-30T03:22:07;4.43;;;3.67;;
11960;SDS011;6040;49.358;11.140;2023-07-30T03:24:33;4.70;;;3.27;;
11960;SDS011;6040;49.358;11.140;2023-07-30T03:27:00;6.97;;;3.53;;
11960;SDS011;6040;49.358;11.140;2023-07-30T03:29:27;6.63;;;3.83;;
11960;SDS011;6040;49.358;11.140;2023-07-30T03:31:54;5.90;;;3.67;;
11960;SDS011;6040;49.358;11.140;2023-07-30T03:34:21;3.57;;;3.23;;
11960;SDS011;6040;49.358;11.140;2023-07-30T03:36:48;4.57;;;3.43;;
11960;SDS011;6040;49.358;11.140;2023-07-30T03:39:16;4.97;;;3.60;;
11960;SDS011;6040;49.358;11.140;2023-07-30T03:41:43;3.87;;;3.50;;
11960;SDS011;6040;49.358;11.140;2023-07-30T03:44:10;4.20;;;3.10;;
11960;SDS011;6040;49.358;11.140;2023-07-30T03:46:37;3.50;;;3.20;;
11960;SDS011;6040;49.358;11.140;2023-07-30T03:49:03;3.87;;;3.57;;
11960;SDS011;6040;49.358;11.140;2023-07-30T03:51:31;5.47;;;3.63;;
11960;SDS011;6040;49.358;11.140;2023-07-30T03:53:58;4.07;;;3.67;;
11960;SDS011;6040;49.358;11.140;2023-07-30T03:56:26;4.90;;;3.80;;
11960;SDS011;6040;49.358;11.140;2023-07-30T03:58:53;4.60;;;3.77;;
11960;SDS011;6040;49.358;11.140;2023-07-30T04:01:19;5.43;;;3.50;;
11960;SDS011;6040;49.358;11.140;2023-07-30T04:03:46;4.13;;;3.50;;
11960;SDS011;6040;49.358;11.140;2023-07-30T04:06:13;3.90;;;3.57;;
11960;SDS011;6040;49.358;11.140;2023-07-30T04:08:40;6.47;;;3.80;;
11960;SDS011;6040;49.358;11.140;2023-07-30T04:11:06;3.90;;;3.47;;
11960;SDS011;6040;49.358;11.140;2023-07-30T04:13:35;8.13;;;4.00;;
11960;SDS011;6040;49.358;11.140;2023-07-30T04:16:01;3.73;;;3.43;;
11960;SDS011;6040;49.358;11.140;2023-07-30T04:18:28;3.77;;;3.27;;
11960;SDS011;6040;49.358;11.140;2023-07-30T04:20:55;4.13;;;3.73;;
11960;SDS011;6040;49.358;11.140;2023-07-30T04:23:22;5.77;;;3.50;;
11960;SDS011;6040;49.358;11.140;2023-07-30T04:25:49;4.10;;;3.47;;
11960;SDS011;6040;49.358;11.140;2023-07-30T04:28:16;5.40;;;4.17;;
11960;SDS011;6040;49.358;11.140;2023-07-30T04:30:44;5.17;;;3.50;;
11960;SDS011;6040;49.358;11.140;2023-07-30T04:33:12;4.97;;;3.93;;
11960;SDS011;6040;49.358;11.140;2023-07-30T04:35:39;4.57;;;3.70;;
11960;SDS011;6040;49.358;11.140;2023-07-30T04:38:06;5.30;;;3.47;;
11960;SDS011;6040;49.358;11.140;2023-07-30T04:40:33;4.10;;;3.70;;
11960;SDS011;6040;49.358;11.140;2023-07-30T04:42:59;6.53;;;3.57;;
11960;SDS011;6040;49.358;11.140;2023-07-30T04:45:26;4.40;;;3.60;;
11960;SDS011;6040;49.358;11.140;2023-07-30T04:47:54;4.60;;;3.70;;
11960;SDS011;6040;49.358;11.140;2023-07-30T04:50:22;4.83;;;3.50;;
11960;SDS011;6040;49.358;11.140;2023-07-30T04:52:48;5.50;;;3.47;;
11960;SDS011;6040;49.358;11.140;2023-07-30T04:55:15;3.47;;;3.13;;
11960;SDS011;6040;49.358;11.140;2023-07-30T04:57:42;3.73;;;3.33;;
11960;SDS011;6040;49.358;11.140;2023-07-30T05:00:09;4.10;;;3.30;;
11960;SDS011;6040;49.358;11.140;2023-07-30T05:02:37;3.73;;;3.30;;
11960;SDS011;6040;49.358;11.140;2023-07-30T05:05:05;3.73;;;3.33;;
11960;SDS011;6040;49.358;11.140;2023-07-30T05:07:33;4.23;;;3.13;;
11960;SDS011;6040;49.358;11.140;2023-07-30T05:09:59;4.80;;;3.13;;
11960;SDS011;6040;49.358;11.140;2023-07-30T05:12:26;3.40;;;3.10;;
11960;SDS011;6040;49.358;11.140;2023-07-30T05:14:53;3.10;;;2.80;;
11960;SDS011;6040;49.358;11.140;2023-07-30T05:17:20;3.57;;;2.83;;
11960;SDS011;6040;49.358;11.140;2023-07-30T05:19:46;3.53;;;3.23;;
11960;SDS011;6040;49.358;11.140;2023-07-30T05:22:15;5.73;;;3.10;;
11960;SDS011;6040;49.358;11.140;2023-07-30T05:24:41;5.37;;;3.07;;
11960;SDS011;6040;49.358;11.140;2023-07-30T05:27:08;3.50;;;2.70;;
11960;SDS011;6040;49.358;11.140;2023-07-30T05:29:35;5.30;;;2.90;;
11960;SDS011;6040;49.358;11.140;2023-07-30T05:32:02;3.00;;;2.70;;
11960;SDS011;6040;49.358;11.140;2023-07-30T05:34:29;2.93;;;2.53;;
11960;SDS011;6040;49.358;11.140;2023-07-30T05:36:56;3.80;;;2.60;;
11960;SDS011;6040;49.358;11.140;2023-07-30T05:39:24;3.27;;;2.63;;
11960;SDS011;6040;49.358;11.140;2023-07-30T05:41:51;4.27;;;2.87;;
11960;SDS011;6040;49.358;11.140;2023-07-30T05:44:18;3.90;;;2.90;;
11960;SDS011;6040;49.358;11.140;2023-07-30T05:46:44;2.83;;;2.53;;
11960;SDS011;6040;49.358;11.140;2023-07-30T05:49:11;2.43;;;2.20;;
11960;SDS011;6040;49.358;11.140;2023-07-30T05:51:39;4.13;;;2.50;;
11960;SDS011;6040;49.358;11.140;2023-07-30T05:54:07;4.70;;;2.37;;
11960;SDS011;6040;49.358;11.140;2023-07-30T05:56:36;2.40;;;2.20;;
11960;SDS011;6040;49.358;11.140;2023-07-30T05:59:02;2.43;;;2.23;;
11960;SDS011;6040;49.358;11.140;2023-07-30T06:01:29;2.57;;;1.97;;
11960;SDS011;6040;49.358;11.140;2023-07-30T06:03:56;2.40;;;2.20;;
11960;SDS011;6040;49.358;11.140;2023-07-30T06:06:23;2.30;;;1.67;;
11960;SDS011;6040;49.358;11.140;2023-07-30T06:08:52;2.07;;;1.70;;
11960;SDS011;6040;49.358;11.140;2023-07-30T06:11:19;3.10;;;2.10;;
11960;SDS011;6040;49.358;11.140;2023-07-30T06:13:48;3.50;;;2.10;;
11960;SDS011;6040;49.358;11.140;2023-07-30T06:16:17;2.00;;;1.90;;
11960;SDS011;6040;49.358;11.140;2023-07-30T06:18:45;1.77;;;1.67;;
11960;SDS011;6040;49.358;11.140;2023-07-30T06:21:11;3.40;;;1.77;;
11960;SDS011;6040;49.358;11.140;2023-07-30T06:23:38;1.77;;;1.67;;
11960;SDS011;6040;49.358;11.140;2023-07-30T06:26:05;1.87;;;1.77;;
11960;SDS011;6040;49.358;11.140;2023-07-30T06:28:32;2.20;;;1.80;;
11960;SDS011;6040;49.358;11.140;2023-07-30T06:31:00;83.47;;;7.40;;
11960;SDS011;6040;49.358;11.140;2023-07-30T06:33:27;2.67;;;2.03;;
11960;SDS011;6040;49.358;11.140;2023-07-30T06:35:54;3.00;;;1.97;;
11960;SDS011;6040;49.358;11.140;2023-07-30T06:38:21;2.03;;;1.83;;
11960;SDS011;6040;49.358;11.140;2023-07-30T06:40:48;2.07;;;1.97;;
11960;SDS011;6040;49.358;11.140;2023-07-30T06:43:15;2.90;;;2.03;;
11960;SDS011;6040;49.358;11.140;2023-07-30T06:45:41;4.10;;;1.90;;
11960;SDS011;6040;49.358;11.140;2023-07-30T06:48:10;2.40;;;2.20;;
11960;SDS011;6040;49.358;11.140;2023-07-30T06:50:36;2.10;;;1.93;;
11960;SDS011;6040;49.358;11.140;2023-07-30T06:53:03;2.10;;;1.90;;
11960;SDS011;6040;49.358;11.140;2023-07-30T06:55:30;2.90;;;1.93;;
11960;SDS011;6040;49.358;11.140;2023-07-30T06:57:57;2.00;;;1.90;;
11960;SDS011;6040;49.358;11.140;2023-07-30T07:00:24;2.67;;;2.30;;
11960;SDS011;6040;49.358;11.140;2023-07-30T07:02:50;2.73;;;1.93;;
11960;SDS011;6040;49.358;11.140;2023-07-30T07:05:19;2.93;;;2.10;;
11960;SDS011;6040;49.358;11.140;2023-07-30T07:07:45;2.30;;;2.10;;
11960;SDS011;6040;49.358;11.140;2023-07-30T07:10:12;1.93;;;1.80;;
11960;SDS011;6040;49.358;11.140;2023-07-30T07:12:40;4.17;;;1.90;;
11960;SDS011;6040;49.358;11.140;2023-07-30T07:15:07;2.50;;;2.30;;
11960;SDS011;6040;49.358;11.140;2023-07-30T07:17:34;2.70;;;2.23;;
11960;SDS011;6040;49.358;11.140;2023-07-30T07:20:01;4.37;;;2.23;;
11960;SDS011;6040;49.358;11.140;2023-07-30T07:22:30;1.90;;;1.73;;
11960;SDS011;6040;49.358;11.140;2023-07-30T07:24:57;2.73;;;1.90;;
11960;SDS011;6040;49.358;11.140;2023-07-30T07:27:24;2.33;;;2.13;;
11960;SDS011;6040;49.358;11.140;2023-07-30T07:29:51;2.20;;;2.00;;
11960;SDS011;6040;49.358;11.140;2023-07-30T07:35:48;3.20;;;2.30;;
11960;SDS011;6040;49.358;11.140;2023-07-30T07:38:16;2.10;;;1.97;;
11960;SDS011;6040;49.358;11.140;2023-07-30T07:40:43;2.43;;;1.80;;
11960;SDS011;6040;49.358;11.140;2023-07-30T07:43:10;2.43;;;2.07;;
11960;SDS011;6040;49.358;11.140;2023-07-30T07:45:37;2.50;;;1.93;;
11960;SDS011;6040;49.358;11.140;2023-07-30T07:48:04;2.23;;;2.03;;
11960;SDS011;6040;49.358;11.140;2023-07-30T07:50:30;2.13;;;1.93;;
11960;SDS011;6040;49.358;11.140;2023-07-30T07:52:57;2.10;;;2.00;;
11960;SDS011;6040;49.358;11.140;2023-07-30T07:55:25;4.20;;;2.10;;
11960;SDS011;6040;49.358;11.140;2023-07-30T07:57:53;2.80;;;1.80;;
11960;SDS011;6040;49.358;11.140;2023-07-30T08:00:20;2.30;;;2.10;;
11960;SDS011;6040;49.358;11.140;2023-07-30T08:02:46;3.77;;;2.50;;
11960;SDS011;6040;49.358;11.140;2023-07-30T08:05:13;2.30;;;2.10;;
11960;SDS011;6040;49.358;11.140;2023-07-30T08:07:41;2.40;;;2.20;;
11960;SDS011;6040;49.358;11.140;2023-07-30T08:10:10;3.80;;;2.40;;
11960;SDS011;6040;49.358;11.140;2023-07-30T08:12:38;2.37;;;2.20;;
11960;SDS011;6040;49.358;11.140;2023-07-30T08:15:06;2.30;;;2.10;;
11960;SDS011;6040;49.358;11.140;2023-07-30T08:17:37;3.17;;;1.93;;
11960;SDS011;6040;49.358;11.140;2023-07-30T08:20:08;4.23;;;3.00;;
11960;SDS011;6040;49.358;11.140;2023-07-30T08:22:36;2.50;;;2.30;;
11960;SDS011;6040;49.358;11.140;2023-07-30T08:25:03;2.93;;;2.20;;
11960;SDS011;6040;49.358;11.140;2023-07-30T08:27:30;1.90;;;1.80;;
11960;SDS011;6040;49.358;11.140;2023-07-30T08:29:58;2.43;;;2.03;;
11960;SDS011;6040;49.358;11.140;2023-07-30T08:32:25;2.20;;;2.00;;
11960;SDS011;6040;49.358;11.140;2023-07-30T08:34:52;2.60;;;2.40;;
11960;SDS011;6040;49.358;11.140;2023-07-30T08:37:18;2.50;;;2.30;;
11960;SDS011;6040;49.358;11.140;2023-07-30T08:39:45;2.37;;;2.27;;
11960;SDS011;6040;49.358;11.140;2023-07-30T08:42:12;2.20;;;2.00;;
11960;SDS011;6040;49.358;11.140;2023-07-30T08:44:39;2.77;;;2.30;;
11960;SDS011;6040;49.358;11.140;2023-07-30T08:47:07;2.17;;;2.03;;
11960;SDS011;6040;49.358;11.140;2023-07-30T08:49:34;2.27;;;2.07;;
11960;SDS011;6040;49.358;11.140;2023-07-30T08:52:02;2.20;;;2.10;;
11960;SDS011;6040;49.358;11.140;2023-07-30T08:54:29;2.07;;;1.97;;
11960;SDS011;6040;49.358;11.140;2023-07-30T08:56:57;2.10;;;2.00;;
11960;SDS011;6040;49.358;11.140;2023-07-30T08:59:24;2.33;;;1.97;;
11960;SDS011;6040;49.358;11.140;2023-07-30T09:01:57;2.57;;;2.20;;
11960;SDS011;6040;49.358;11.140;2023-07-30T09:04:26;2.80;;;2.10;;
11960;SDS011;6040;49.358;11.140;2023-07-30T09:06:54;2.03;;;1.93;;
11960;SDS011;6040;49.358;11.140;2023-07-30T09:09:21;2.07;;;1.97;;
11960;SDS011;6040;49.358;11.140;2023-07-30T09:11:50;1.70;;;1.60;;
11960;SDS011;6040;49.358;11.140;2023-07-30T09:14:19;2.77;;;1.80;;
11960;SDS011;6040;49.358;11.140;2023-07-30T09:16:45;2.20;;;2.00;;
11960;SDS011;6040;49.358;11.140;2023-07-30T09:19:15;2.17;;;1.97;;
11960;SDS011;6040;49.358;11.140;2023-07-30T09:21:44;6.13;;;2.10;;
11960;SDS011;6040;49.358;11.140;2023-07-30T09:24:11;1.83;;;1.70;;
11960;SDS011;6040;49.358;11.140;2023-07-30T09:26:42;3.50;;;2.10;;
11960;SDS011;6040;49.358;11.140;2023-07-30T09:29:09;2.33;;;1.93;;
11960;SDS011;6040;49.358;11.140;2023-07-30T09:31:43;4.40;;;2.13;;
11960;SDS011;6040;49.358;11.140;2023-07-30T09:34:14;1.87;;;1.77;;
11960;SDS011;6040;49.358;11.140;2023-07-30T09:36:45;2.10;;;1.90;;
11960;SDS011;6040;49.358;11.140;2023-07-30T09:39:15;2.50;;;1.70;;
11960;SDS011;6040;49.358;11.140;2023-07-30T09:41:43;2.20;;;1.73;;
11960;SDS011;6040;49.358;11.140;2023-07-30T09:44:10;2.15;;;1.92;;
11960;SDS011;6040;49.358;11.140;2023-07-30T09:46:41;1.70;;;1.60;;
11960;SDS011;6040;49.358;11.140;2023-07-30T09:49:08;1.95;;;1.77;;
11960;SDS011;6040;49.358;11.140;2023-07-30T09:51:36;1.70;;;1.60;;
11960;SDS011;6040;49.358;11.140;2023-07-30T09:54:04;2.42;;;1.73;;
11960;SDS011;6040;49.358;11.140;2023-07-30T09:56:32;1.52;;;1.42;;
11960;SDS011;6040;49.358;11.140;2023-07-30T09:58:59;1.80;;;1.70;;
11960;SDS011;6040;49.358;11.140;2023-07-30T10:01:26;1.60;;;1.50;;
11960;SDS011;6040;49.358;11.140;2023-07-30T10:03:56;2.33;;;1.70;;
11960;SDS011;6040;49.358;11.140;2023-07-30T10:06:23;2.35;;;1.77;;
11960;SDS011;6040;49.358;11.140;2023-07-30T10:08:51;1.50;;;1.40;;
11960;SDS011;6040;49.358;11.140;2023-07-30T10:11:22;1.60;;;1.50;;
11960;SDS011;6040;49.358;11.140;2023-07-30T10:13:49;1.83;;;1.50;;
11960;SDS011;6040;49.358;11.140;2023-07-30T10:16:17;1.50;;;1.40;;
11960;SDS011;6040;49.358;11.140;2023-07-30T10:18:45;1.60;;;1.50;;
11960;SDS011;6040;49.358;11.140;2023-07-30T10:21:21;1.80;;;1.70;;
11960;SDS011;6040;49.358;11.140;2023-07-30T10:23:50;1.93;;;1.50;;
11960;SDS011;6040;49.358;11.140;2023-07-30T10:26:27;2.10;;;1.55;;
11960;SDS011;6040;49.358;11.140;2023-07-30T10:29:11;1.53;;;1.43;;
11960;SDS011;6040;49.358;11.140;2023-07-30T10:31:39;1.50;;;1.40;;
11960;SDS011;6040;49.358;11.140;2023-07-30T10:34:06;2.17;;;1.60;;
11960;SDS011;6040;49.358;11.140;2023-07-30T10:36:36;2.00;;;1.30;;
11960;SDS011;6040;49.358;11.140;2023-07-30T10:39:12;1.40;;;1.30;;
11960;SDS011;6040;49.358;11.140;2023-07-30T10:41:42;1.40;;;1.30;;
11960;SDS011;6040;49.358;11.140;2023-07-30T10:44:17;2.30;;;1.60;;
11960;SDS011;6040;49.358;11.140;2023-07-30T10:46:44;2.13;;;1.50;;
11960;SDS011;6040;49.358;11.140;2023-07-30T10:49:11;1.67;;;1.40;;
11960;SDS011;6040;49.358;11.140;2023-07-30T10:51:38;1.70;;;1.40;;
11960;SDS011;6040;49.358;11.140;2023-07-30T10:54:06;1.73;;;1.60;;
11960;SDS011;6040;49.358;11.140;2023-07-30T10:56:34;1.87;;;1.50;;
11960;SDS011;6040;49.358;11.140;2023-07-30T10:59:03;1.50;;;1.40;;
11960;SDS011;6040;49.358;11.140;2023-07-30T11:01:31;1.40;;;1.30;;
11960;SDS011;6040;49.358;11.140;2023-07-30T11:03:57;1.40;;;1.30;;
11960;SDS011;6040;49.358;11.140;2023-07-30T11:06:25;1.60;;;1.37;;
11960;SDS011;6040;49.358;11.140;2023-07-30T11:08:53;4.67;;;1.47;;
11960;SDS011;6040;49.358;11.140;2023-07-30T11:11:20;1.50;;;1.40;;
11960;SDS011;6040;49.358;11.140;2023-07-30T11:13:49;1.53;;;1.30;;
11960;SDS011;6040;49.358;11.140;2023-07-30T11:16:17;1.60;;;1.50;;
11960;SDS011;6040;49.358;11.140;2023-07-30T11:18:44;1.30;;;1.20;;
11960;SDS011;6040;49.358;11.140;2023-07-30T11:21:13;1.90;;;1.50;;
11960;SDS011;6040;49.358;11.140;2023-07-30T11:23:41;1.33;;;1.23;;
11960;SDS011;6040;49.358;11.140;2023-07-30T11:26:13;1.47;;;1.33;;
11960;SDS011;6040;49.358;11.140;2023-07-30T11:28:42;1.73;;;1.40;;
11960;SDS011;6040;49.358;11.140;2023-07-30T11:31:09;1.40;;;1.30;;
11960;SDS011;6040;49.358;11.140;2023-07-30T11:33:39;1.43;;;1.30;;
11960;SDS011;6040;49.358;11.140;2023-07-30T11:36:08;1.67;;;1.30;;
11960;SDS011;6040;49.358;11.140;2023-07-30T11:38:37;1.80;;;1.40;;
11960;SDS011;6040;49.358;11.140;2023-07-30T11:41:05;1.60;;;1.43;;
11960;SDS011;6040;49.358;11.140;2023-07-30T11:43:35;1.70;;;1.60;;
11960;SDS011;6040;49.358;11.140;2023-07-30T11:46:10;1.50;;;1.40;;
11960;SDS011;6040;49.358;11.140;2023-07-30T11:48:40;1.70;;;1.60;;
11960;SDS011;6040;49.358;11.140;2023-07-30T11:51:17;2.10;;;1.40;;
11960;SDS011;6040;49.358;11.140;2023-07-30T11:53:47;1.60;;;1.50;;
11960;SDS011;6040;49.358;11.140;2023-07-30T11:56:18;1.83;;;1.30;;
11960;SDS011;6040;49.358;11.140;2023-07-30T11:58:46;1.57;;;1.47;;
11960;SDS011;6040;49.358;11.140;2023-07-30T12:01:14;1.73;;;1.60;;
11960;SDS011;6040;49.358;11.140;2023-07-30T12:03:42;2.37;;;1.50;;
11960;SDS011;6040;49.358;11.140;2023-07-30T12:06:10;2.80;;;1.57;;
11960;SDS011;6040;49.358;11.140;2023-07-30T12:08:37;2.07;;;1.60;;
11960;SDS011;6040;49.358;11.140;2023-07-30T12:11:04;1.70;;;1.60;;
11960;SDS011;6040;49.358;11.140;2023-07-30T12:13:32;2.23;;;1.70;;
11960;SDS011;6040;49.358;11.140;2023-07-30T12:15:59;3.63;;;1.73;;
11960;SDS011;6040;49.358;11.140;2023-07-30T12:18:26;1.80;;;1.70;;
11960;SDS011;6040;49.358;11.140;2023-07-30T12:20:55;1.67;;;1.53;;
11960;SDS011;6040;49.358;11.140;2023-07-30T12:23:23;1.77;;;1.63;;
11960;SDS011;6040;49.358;11.140;2023-07-30T12:25:50;2.07;;;1.73;;
11960;SDS011;6040;49.358;11.140;2023-07-30T12:28:17;3.00;;;1.97;;
11960;SDS011;6040;49.358;11.140;2023-07-30T12:30:44;3.03;;;1.70;;
11960;SDS011;6040;49.358;11.140;2023-07-30T12:33:10;2.03;;;1.60;;
11960;SDS011;6040;49.358;11.140;2023-07-30T12:35:37;2.80;;;1.80;;
11960;SDS011;6040;49.358;11.140;2023-07-30T12:38:05;2.20;;;1.63;;
11960;SDS011;6040;49.358;11.140;2023-07-30T12:40:32;1.70;;;1.60;;
11960;SDS011;6040;49.358;11.140;2023-07-30T12:43:00;2.03;;;1.70;;
11960;SDS011;6040;49.358;11.140;2023-07-30T12:45:27;2.13;;;1.80;;
11960;SDS011;6040;49.358;11.140;2023-07-30T12:47:54;3.83;;;1.73;;
11960;SDS011;6040;49.358;11.140;2023-07-30T12:50:21;2.70;;;1.70;;
11960;SDS011;6040;49.358;11.140;2023-07-30T12:52:48;1.83;;;1.53;;
11960;SDS011;6040;49.358;11.140;2023-07-30T12:55:16;1.80;;;1.70;;
11960;SDS011;6040;49.358;11.140;2023-07-30T12:57:43;1.83;;;1.60;;
11960;SDS011;6040;49.358;11.140;2023-07-30T13:00:11;2.60;;;2.10;;
11960;SDS011;6040;49.358;11.140;2023-07-30T13:02:38;2.07;;;1.87;;
11960;SDS011;6040;49.358;11.140;2023-07-30T13:05:05;2.57;;;1.87;;
11960;SDS011;6040;49.358;11.140;2023-07-30T13:07:32;2.23;;;1.80;;
11960;SDS011;6040;49.358;11.140;2023-07-30T13:10:03;5.77;;;1.90;;
11960;SDS011;6040;49.358;11.140;2023-07-30T13:12:32;2.33;;;1.80;;
11960;SDS011;6040;49.358;11.140;2023-07-30T13:14:59;3.63;;;1.70;;
11960;SDS011;6040;49.358;11.140;2023-07-30T13:17:27;2.20;;;1.77;;
11960;SDS011;6040;49.358;11.140;2023-07-30T13:19:53;2.47;;;1.80;;
11960;SDS011;6040;49.358;11.140;2023-07-30T13:22:20;2.63;;;1.80;;
11960;SDS011;6040;49.358;11.140;2023-07-30T13:24:48;2.93;;;1.93;;
11960;SDS011;6040;49.358;11.140;2023-07-30T13:27:15;2.00;;;1.73;;
11960;SDS011;6040;49.358;11.140;2023-07-30T13:29:43;3.00;;;1.80;;
11960;SDS011;6040;49.358;11.140;2023-07-30T13:32:11;1.67;;;1.57;;
11960;SDS011;6040;49.358;11.140;2023-07-30T13:34:38;5.47;;;2.17;;
11960;SDS011;6040;49.358;11.140;2023-07-30T13:37:05;3.17;;;2.00;;
11960;SDS011;6040;49.358;11.140;2023-07-30T13:39:32;1.70;;;1.60;;
11960;SDS011;6040;49.358;11.140;2023-07-30T13:41:59;2.40;;;1.77;;
11960;SDS011;6040;49.358;11.140;2023-07-30T13:44:26;3.60;;;1.80;;
11960;SDS011;6040;49.358;11.140;2023-07-30T13:46:54;4.47;;;1.70;;
11960;SDS011;6040;49.358;11.140;2023-07-30T13:49:21;2.10;;;1.90;;
11960;SDS011;6040;49.358;11.140;2023-07-30T13:51:49;1.87;;;1.70;;
11960;SDS011;6040;49.358;11.140;2023-07-30T13:54:16;2.17;;;1.93;;
11960;SDS011;6040;49.358;11.140;2023-07-30T13:56:42;1.90;;;1.70;;
11960;SDS011;6040;49.358;11.140;2023-07-30T13:59:11;3.03;;;1.60;;
11960;SDS011;6040;49.358;11.140;2023-07-30T14:01:38;2.63;;;1.40;;
11960;SDS011;6040;49.358;11.140;2023-07-30T14:04:06;1.93;;;1.43;;
11960;SDS011;6040;49.358;11.140;2023-07-30T14:06:33;1.83;;;1.47;;
11960;SDS011;6040;49.358;11.140;2023-07-30T14:09:00;2.33;;;1.63;;
11960;SDS011;6040;49.358;11.140;2023-07-30T14:11:27;2.40;;;1.50;;
11960;SDS011;6040;49.358;11.140;2023-07-30T14:13:54;2.90;;;1.63;;
11960;SDS011;6040;49.358;11.140;2023-07-30T14:16:23;2.93;;;1.73;;
11960;SDS011;6040;49.358;11.140;2023-07-30T14:18:50;2.23;;;1.73;;
11960;SDS011;6040;49.358;11.140;2023-07-30T14:21:18;2.13;;;1.60;;
11960;SDS011;6040;49.358;11.140;2023-07-30T14:23:45;2.70;;;1.80;;
11960;SDS011;6040;49.358;11.140;2023-07-30T14:26:11;1.60;;;1.50;;
11960;SDS011;6040;49.358;11.140;2023-07-30T14:28:38;1.50;;;1.40;;
11960;SDS011;6040;49.358;11.140;2023-07-30T14:31:05;1.50;;;1.40;;
11960;SDS011;6040;49.358;11.140;2023-07-30T14:33:32;3.73;;;1.50;;
11960;SDS011;6040;49.358;11.140;2023-07-30T14:35:59;1.87;;;1.53;;
11960;SDS011;6040;49.358;11.140;2023-07-30T14:38:27;2.20;;;1.40;;
11960;SDS011;6040;49.358;11.140;2023-07-30T14:40:56;2.27;;;1.60;;
11960;SDS011;6040;49.358;11.140;2023-07-30T14:43:23;2.63;;;1.70;;
11960;SDS011;6040;49.358;11.140;2023-07-30T14:45:49;2.73;;;1.70;;
11960;SDS011;6040;49.358;11.140;2023-07-30T14:48:16;2.20;;;1.53;;
11960;SDS011;6040;49.358;11.140;2023-07-30T14:50:43;2.70;;;1.47;;
11960;SDS011;6040;49.358;11.140;2023-07-30T14:53:10;1.60;;;1.50;;